KSKX

Details ICAO KSKX
Name Taos Rgnl
Region United States
Timezone America/Denver (UTC-6.0)
Plans Departing 3
Arriving 11
Stats Elevation 7,091 ft / 2,161 m (AMSL)
Location 36.458182° -105.672425°
Runways 1
Magnetic Variation 8.210° E
Sunrise 2018-05-20 11:53:35 UTC / 2018-05-20 05:53:35 Local
Sunset 2018-05-21 02:07:44 UTC / 2018-05-20 20:07:44 Local
Advertisement - Login to hide

Runways

ID Width Length Bearing (true) Bearing (mag) Surface Threshold Offset Overrun Length
04 75 ft / 23 m 5,794 ft / 1,766 m 56.03° 47.82° Asphalt 0 ft / 0 m 0 ft / 0 m
22 75 ft / 23 m 5,794 ft / 1,766 m 236.04° 227.83° Asphalt 0 ft / 0 m 0 ft / 0 m

Map

Weather


0- 5 10 15 20 25 30 35+ Temperature / ° C

Clouds and Precipitation
Forecast for 2018-05-21 00:00 UTC. Updated 30 minutes ago

Ground ~20,000 ft ~40,000 ft Winds

METAR

KSKX 202256Z AUTO 24019G26KT 10SM FEW120 23/M06 A3012 RMK AO2 PK WND 23027/2241 SLP142 T02281061 $

TAF

Not found

Frequencies

Recorded 132.97 MHz AWOS 3
Unicom 122.80 MHz CTAF/UNICOM
Warning: Do not use this data for real-world aviation or navigation. No guarantee of current accuracy is given.